sensor_id;sensor_type;location;lat;lon;timestamp;pressure;altitude;pressure_sealevel;temperature;humidity
48027;BME280;50714;49.208;5.364;2024-01-27T00:04:28;101383.03;;;2.34;100.00
48027;BME280;50714;49.208;5.364;2024-01-27T00:14:28;101380.25;;;2.48;100.00
48027;BME280;50714;49.208;5.364;2024-01-27T00:24:29;101392.41;;;2.52;100.00
48027;BME280;50714;49.208;5.364;2024-01-27T00:34:29;101385.91;;;2.31;100.00
48027;BME280;50714;49.208;5.364;2024-01-27T00:44:29;101388.88;;;2.26;100.00
48027;BME280;50714;49.208;5.364;2024-01-27T00:54:30;101384.59;;;2.24;100.00
48027;BME280;50714;49.208;5.364;2024-01-27T01:04:30;101389.91;;;2.24;100.00
48027;BME280;50714;49.208;5.364;2024-01-27T01:14:30;101407.41;;;2.28;100.00
48027;BME280;50714;49.208;5.364;2024-01-27T01:24:31;101403.34;;;2.22;100.00
48027;BME280;50714;49.208;5.364;2024-01-27T01:34:31;101408.47;;;2.25;100.00
48027;BME280;50714;49.208;5.364;2024-01-27T01:44:34;101400.94;;;2.32;100.00
48027;BME280;50714;49.208;5.364;2024-01-27T01:54:34;101401.72;;;2.20;100.00
48027;BME280;50714;49.208;5.364;2024-01-27T02:14:41;101398.31;;;2.18;100.00
48027;BME280;50714;49.208;5.364;2024-01-27T02:24:42;101404.09;;;2.24;100.00
48027;BME280;50714;49.208;5.364;2024-01-27T02:34:42;101402.59;;;2.20;100.00
48027;BME280;50714;49.208;5.364;2024-01-27T02:44:42;101384.16;;;2.17;100.00
48027;BME280;50714;49.208;5.364;2024-01-27T02:54:42;101392.88;;;2.07;100.00
48027;BME280;50714;49.208;5.364;2024-01-27T03:04:43;101390.63;;;2.00;100.00
48027;BME280;50714;49.208;5.364;2024-01-27T03:14:43;101414.88;;;1.96;100.00
48027;BME280;50714;49.208;5.364;2024-01-27T03:24:44;101398.16;;;1.94;100.00
48027;BME280;50714;49.208;5.364;2024-01-27T03:34:45;101416.56;;;1.84;100.00
48027;BME280;50714;49.208;5.364;2024-01-27T03:44:45;101411.75;;;1.89;100.00
48027;BME280;50714;49.208;5.364;2024-01-27T03:54:47;101428.25;;;1.41;100.00
48027;BME280;50714;49.208;5.364;2024-01-27T04:04:47;101418.19;;;1.31;100.00
48027;BME280;50714;49.208;5.364;2024-01-27T04:14:48;101396.94;;;1.03;100.00
48027;BME280;50714;49.208;5.364;2024-01-27T04:24:48;101412.81;;;1.05;100.00
48027;BME280;50714;49.208;5.364;2024-01-27T04:34:49;101418.22;;;0.89;100.00
48027;BME280;50714;49.208;5.364;2024-01-27T04:44:49;101422.09;;;0.83;100.00
48027;BME280;50714;49.208;5.364;2024-01-27T04:54:49;101412.91;;;1.03;100.00
48027;BME280;50714;49.208;5.364;2024-01-27T05:04:50;101419.72;;;1.07;100.00
48027;BME280;50714;49.208;5.364;2024-01-27T05:14:50;101426.84;;;1.21;100.00
48027;BME280;50714;49.208;5.364;2024-01-27T05:24:50;101404.06;;;1.17;100.00
48027;BME280;50714;49.208;5.364;2024-01-27T05:34:51;101420.22;;;1.14;100.00
48027;BME280;50714;49.208;5.364;2024-01-27T05:44:51;101423.41;;;0.62;100.00
48027;BME280;50714;49.208;5.364;2024-01-27T05:54:52;101436.44;;;0.37;100.00
48027;BME280;50714;49.208;5.364;2024-01-27T06:04:53;101445.34;;;0.21;100.00
48027;BME280;50714;49.208;5.364;2024-01-27T06:14:53;101442.13;;;0.30;100.00
48027;BME280;50714;49.208;5.364;2024-01-27T06:24:53;101439.81;;;0.54;100.00
48027;BME280;50714;49.208;5.364;2024-01-27T06:34:53;101445.72;;;0.74;100.00
48027;BME280;50714;49.208;5.364;2024-01-27T06:44:54;101449.22;;;0.74;100.00
48027;BME280;50714;49.208;5.364;2024-01-27T06:54:54;101459.50;;;0.80;100.00
48027;BME280;50714;49.208;5.364;2024-01-27T07:04:55;101469.84;;;0.71;100.00
48027;BME280;50714;49.208;5.364;2024-01-27T07:14:55;101465.19;;;0.74;100.00
48027;BME280;50714;49.208;5.364;2024-01-27T07:24:55;101469.19;;;0.37;100.00
48027;BME280;50714;49.208;5.364;2024-01-27T07:34:56;101473.59;;;0.07;100.00
48027;BME280;50714;49.208;5.364;2024-01-27T07:44:57;101465.97;;;0.00;100.00
48027;BME280;50714;49.208;5.364;2024-01-27T07:54:57;101458.13;;;-0.01;100.00
48027;BME280;50714;49.208;5.364;2024-01-27T08:04:58;101447.28;;;0.48;100.00
48027;BME280;50714;49.208;5.364;2024-01-27T08:14:58;101460.34;;;0.81;100.00
48027;BME280;50714;49.208;5.364;2024-01-27T08:24:58;101463.97;;;1.22;100.00
48027;BME280;50714;49.208;5.364;2024-01-27T08:34:59;101460.63;;;1.47;100.00
48027;BME280;50714;49.208;5.364;2024-01-27T08:44:59;101465.75;;;1.64;100.00
48027;BME280;50714;49.208;5.364;2024-01-27T08:54:59;101462.16;;;1.92;100.00
48027;BME280;50714;49.208;5.364;2024-01-27T09:05:00;101451.50;;;2.59;100.00
48027;BME280;50714;49.208;5.364;2024-01-27T09:15:00;101449.47;;;3.26;100.00
48027;BME280;50714;49.208;5.364;2024-01-27T09:25:00;101444.28;;;4.32;100.00
48027;BME280;50714;49.208;5.364;2024-01-27T09:35:01;101437.53;;;7.22;98.31
48027;BME280;50714;49.208;5.364;2024-01-27T09:45:02;101446.56;;;7.61;86.44
48027;BME280;50714;49.208;5.364;2024-01-27T09:55:02;101439.47;;;8.29;81.88
48027;BME280;50714;49.208;5.364;2024-01-27T10:05:03;101413.09;;;9.82;83.69
48027;BME280;50714;49.208;5.364;2024-01-27T10:15:05;101428.78;;;11.87;83.69
48027;BME280;50714;49.208;5.364;2024-01-27T10:25:09;101415.91;;;10.87;80.28
48027;BME280;50714;49.208;5.364;2024-01-27T10:35:12;101401.56;;;9.90;80.77
48027;BME280;50714;49.208;5.364;2024-01-27T10:45:12;101394.66;;;9.33;79.67
48027;BME280;50714;49.208;5.364;2024-01-27T10:55:13;101377.16;;;8.72;84.05
48027;BME280;50714;49.208;5.364;2024-01-27T11:05:13;101381.41;;;8.55;81.34
48027;BME280;50714;49.208;5.364;2024-01-27T11:15:14;101362.91;;;8.33;81.29
48027;BME280;50714;49.208;5.364;2024-01-27T11:25:18;101372.94;;;8.21;81.45
48027;BME280;50714;49.208;5.364;2024-01-27T11:35:19;101369.94;;;7.86;81.52
48027;BME280;50714;49.208;5.364;2024-01-27T11:45:19;101365.53;;;7.66;82.10
48027;BME280;50714;49.208;5.364;2024-01-27T11:55:19;101351.81;;;7.59;73.74
48027;BME280;50714;49.208;5.364;2024-01-27T12:05:20;101346.03;;;7.54;75.64
48027;BME280;50714;49.208;5.364;2024-01-27T12:15:20;101336.53;;;7.50;69.77
48027;BME280;50714;49.208;5.364;2024-01-27T12:25:21;101344.88;;;7.57;67.93
48027;BME280;50714;49.208;5.364;2024-01-27T12:35:23;101346.72;;;7.56;66.40
48027;BME280;50714;49.208;5.364;2024-01-27T12:45:23;101326.38;;;7.63;67.41
48027;BME280;50714;49.208;5.364;2024-01-27T12:55:24;101317.72;;;7.50;68.54
48027;BME280;50714;49.208;5.364;2024-01-27T13:05:24;101305.22;;;7.20;68.21
48027;BME280;50714;49.208;5.364;2024-01-27T13:15:25;101288.22;;;7.10;67.71
48027;BME280;50714;49.208;5.364;2024-01-27T13:25:26;101283.25;;;6.96;62.58
48027;BME280;50714;49.208;5.364;2024-01-27T13:35:26;101257.13;;;6.98;66.77
48027;BME280;50714;49.208;5.364;2024-01-27T13:45:26;101271.94;;;6.92;69.81
48027;BME280;50714;49.208;5.364;2024-01-27T13:55:27;101273.63;;;6.93;67.65
48027;BME280;50714;49.208;5.364;2024-01-27T14:05:27;101252.47;;;7.00;69.98
48027;BME280;50714;49.208;5.364;2024-01-27T14:15:27;101251.50;;;7.10;73.11
48027;BME280;50714;49.208;5.364;2024-01-27T14:25:28;101244.41;;;7.09;74.79
48027;BME280;50714;49.208;5.364;2024-01-27T14:35:28;101241.47;;;7.03;73.87
48027;BME280;50714;49.208;5.364;2024-01-27T14:45:29;101233.81;;;6.98;74.53
48027;BME280;50714;49.208;5.364;2024-01-27T14:55:30;101214.75;;;7.01;74.20
48027;BME280;50714;49.208;5.364;2024-01-27T15:05:32;101210.19;;;6.92;74.99
48027;BME280;50714;49.208;5.364;2024-01-27T15:15:37;101201.56;;;6.89;76.53
48027;BME280;50714;49.208;5.364;2024-01-27T15:25:37;101184.63;;;6.88;77.02
48027;BME280;50714;49.208;5.364;2024-01-27T15:35:38;101181.22;;;6.86;77.79
48027;BME280;50714;49.208;5.364;2024-01-27T15:45:38;101172.03;;;6.69;78.28
48027;BME280;50714;49.208;5.364;2024-01-27T15:55:39;101175.94;;;6.56;79.79
48027;BME280;50714;49.208;5.364;2024-01-27T16:05:39;101175.38;;;6.52;79.78
48027;BME280;50714;49.208;5.364;2024-01-27T16:15:39;101180.94;;;6.39;79.96
48027;BME280;50714;49.208;5.364;2024-01-27T16:25:40;101195.97;;;6.21;80.57
48027;BME280;50714;49.208;5.364;2024-01-27T16:35:40;101201.69;;;6.07;79.18
48027;BME280;50714;49.208;5.364;2024-01-27T16:45:40;101195.13;;;5.90;80.19
48027;BME280;50714;49.208;5.364;2024-01-27T16:55:41;101202.25;;;5.69;81.46
48027;BME280;50714;49.208;5.364;2024-01-27T17:05:41;101185.44;;;5.46;81.39
48027;BME280;50714;49.208;5.364;2024-01-27T17:15:42;101164.88;;;5.26;79.55
48027;BME280;50714;49.208;5.364;2024-01-27T17:25:42;101162.66;;;5.31;80.20
48027;BME280;50714;49.208;5.364;2024-01-27T17:35:45;101156.91;;;5.35;79.91
48027;BME280;50714;49.208;5.364;2024-01-27T17:45:48;101145.28;;;5.46;79.67
48027;BME280;50714;49.208;5.364;2024-01-27T17:55:49;101157.94;;;5.44;79.32
48027;BME280;50714;49.208;5.364;2024-01-27T18:05:50;101171.09;;;5.47;80.94
48027;BME280;50714;49.208;5.364;2024-01-27T18:15:51;101170.81;;;5.29;81.12
48027;BME280;50714;49.208;5.364;2024-01-27T18:25:51;101179.44;;;5.01;81.65
48027;BME280;50714;49.208;5.364;2024-01-27T18:35:51;101166.50;;;4.74;83.68
48027;BME280;50714;49.208;5.364;2024-01-27T18:45:52;101165.31;;;4.67;85.13
48027;BME280;50714;49.208;5.364;2024-01-27T18:55:54;101164.75;;;4.41;85.28
48027;BME280;50714;49.208;5.364;2024-01-27T19:05:54;101161.97;;;4.20;87.22
48027;BME280;50714;49.208;5.364;2024-01-27T19:15:54;101160.88;;;4.00;86.77
48027;BME280;50714;49.208;5.364;2024-01-27T19:25:55;101163.75;;;3.75;88.55
48027;BME280;50714;49.208;5.364;2024-01-27T19:35:55;101162.97;;;3.51;89.76
48027;BME280;50714;49.208;5.364;2024-01-27T19:45:55;101147.38;;;3.33;92.06
48027;BME280;50714;49.208;5.364;2024-01-27T19:55:56;101143.59;;;3.25;93.00
48027;BME280;50714;49.208;5.364;2024-01-27T20:05:56;101140.31;;;3.32;95.17
48027;BME280;50714;49.208;5.364;2024-01-27T20:15:56;101128.31;;;3.27;95.66
48027;BME280;50714;49.208;5.364;2024-01-27T20:25:57;101141.84;;;3.13;94.78
48027;BME280;50714;49.208;5.364;2024-01-27T20:35:57;101122.81;;;3.06;94.51
48027;BME280;50714;49.208;5.364;2024-01-27T20:45:57;101116.00;;;3.02;95.61
48027;BME280;50714;49.208;5.364;2024-01-27T20:56:02;101125.91;;;3.00;95.92
48027;BME280;50714;49.208;5.364;2024-01-27T21:06:02;101099.13;;;3.01;94.51
48027;BME280;50714;49.208;5.364;2024-01-27T21:16:04;101098.13;;;2.91;93.58
48027;BME280;50714;49.208;5.364;2024-01-27T21:26:04;101075.41;;;2.86;94.59
48027;BME280;50714;49.208;5.364;2024-01-27T21:36:05;101063.56;;;2.90;95.27
48027;BME280;50714;49.208;5.364;2024-01-27T21:46:05;101065.28;;;2.91;95.36
48027;BME280;50714;49.208;5.364;2024-01-27T21:56:06;101056.41;;;2.90;94.94
48027;BME280;50714;49.208;5.364;2024-01-27T22:06:06;101053.81;;;3.01;95.41
48027;BME280;50714;49.208;5.364;2024-01-27T22:16:07;101057.34;;;3.13;94.50
48027;BME280;50714;49.208;5.364;2024-01-27T22:26:07;101027.28;;;3.22;93.00
48027;BME280;50714;49.208;5.364;2024-01-27T22:36:09;101025.13;;;3.38;92.39
48027;BME280;50714;49.208;5.364;2024-01-27T22:46:13;101023.78;;;3.55;92.12
48027;BME280;50714;49.208;5.364;2024-01-27T22:56:13;101043.81;;;3.61;90.44
48027;BME280;50714;49.208;5.364;2024-01-27T23:06:13;101048.31;;;3.49;91.04
48027;BME280;50714;49.208;5.364;2024-01-27T23:16:14;101039.53;;;3.25;92.32
48027;BME280;50714;49.208;5.364;2024-01-27T23:26:15;101021.06;;;3.11;94.29
48027;BME280;50714;49.208;5.364;2024-01-27T23:36:16;101008.34;;;3.14;91.30
48027;BME280;50714;49.208;5.364;2024-01-27T23:46:16;101005.91;;;3.11;92.94
48027;BME280;50714;49.208;5.364;2024-01-27T23:56:16;100994.63;;;3.07;90.18
